ADDS METAR Data INFO
IDs: Format: Raw Decoded Include TAF

Data at: 0327 UTC 16 Dec 2017

KHWO 160253Z AUTO 00000KT 10SM CLR 18/13 A3017 RMK AO2 SLP217 T01780133 51015
KHWO 160153Z AUTO 00000KT 10SM CLR 18/13 A3016 RMK AO2 SLP213 T01830133
KHWO 160053Z 00000KT 10SM CLR 19/13 A3015 RMK AO2 SLP209 T01940133
KHWO 152353Z 00000KT 10SM CLR 22/13 A3013 RMK AO2 SLP202 T02170133 10272 20211 53019
KHWO 152253Z 31004KT 10SM CLR 22/13 A3011 RMK AO2 SLP196 T02220128
KHWO 152153Z VRB03KT 10SM CLR 25/14 A3009 RMK AO2 SLP189 T02500139
KHWO 152053Z 16006KT 10SM CLR 25/14 A3007 RMK AO2 SLP184 T02500144 55005
KHWO 151953Z 00000KT 10SM CLR 27/12 A3007 RMK AO2 SLP181 T02670122
KHWO 151853Z 24006KT 10SM CLR 26/12 A3007 RMK AO2 SLP182 T02610117
KHWO 151753Z VRB04KT 10SM CLR 26/11 A3009 RMK AO2 SLP189 T02560106 10256 20111 58017
KHWO 151653Z 24004KT 10SM CLR 24/12 A3011 RMK AO2 SLP197 T02440122
KHWO 151553Z 18005KT 10SM CLR 24/13 A3013 RMK AO2 SLP204 T02390128
KHWO 151453Z 21005KT 10SM CLR 22/14 A3014 RMK AO2 SLP206 T02220139 51012
KHWO 151353Z 31004KT 10SM CLR 19/13 A3013 RMK AO2 SLP204 T01890133
KHWO 151253Z 00000KT 10SM CLR 13/11 A3011 RMK AO2 SLP197 T01330111
KHWO 151153Z 00000KT 10SM CLR 12/10 A3011 RMK AO2 SLP194 T01170100 10122 20106 53005
KHWO 151053Z AUTO 00000KT 10SM CLR 11/09 A3010 RMK AO2 SLP192 T01110094
KHWO 150953Z AUTO 00000KT 10SM CLR 11/09 A3009 RMK AO2 SLP189 T01110094
KHWO 150853Z AUTO 00000KT 10SM CLR 12/10 A3009 RMK AO2 SLP190 T01220100 55003
KHWO 150753Z AUTO 00000KT 10SM CLR 12/10 A3009 RMK AO2 SLP187 T01170100
KHWO 150653Z AUTO 00000KT 10SM CLR 12/10 A3009 RMK AO2 SLP190 T01220100
KHWO 150553Z AUTO 00000KT 10SM CLR 12/09 A3010 RMK AO2 SLP193 T01220094 10183 20122 58005
KHWO 150453Z AUTO 00000KT 10SM CLR 13/09 A3012 RMK AO2 SLP198 T01280094 402280067
KHWO 150353Z AUTO 00000KT 10SM CLR 13/09 A3012 RMK AO2 SLP200 T01330089
KHWO 150253Z AUTO 00000KT 10SM CLR 14/08 A3012 RMK AO2 SLP198 T01390083 50007
KHWO 150153Z 25003KT 10SM CLR 15/08 A3012 RMK AO2 SLP200 T01500083
KHWO 150053Z 19003KT 10SM CLR 17/07 A3009 RMK AO2 SLP189 T01720072
KHWO 142353Z 16003KT 10SM CLR 18/07 A3010 RMK AO2 SLP191 T01830067 10228 20178 53016
KHWO 142253Z 00000KT 10SM CLR 20/02 A3008 RMK AO2 SLP185 T02000022
KHWO 142153Z 28003KT 10SM CLR 21/03 A3006 RMK AO2 SLP179 T02060028
KHWO 142053Z 00000KT 10SM CLR 22/01 A3005 RMK AO2 SLP175 T02170006 56017
KHWO 141953Z 29005KT 10SM CLR 22/00 A3006 RMK AO2 SLP179 T02220000
KHWO 141853Z VRB03KT 10SM CLR 22/01 A3008 RMK AO2 SLP184 T02220006
KHWO 141753Z 23004KT 10SM CLR 21/02 A3010 RMK AO2 SLP192 T02110017 10211 20067 58017
KHWO 141653Z 00000KT 10SM CLR 20/01 A3012 RMK AO2 SLP200 T02000011
KHWO 141553Z VRB03KT 10SM CLR 18/06 A3015 RMK AO2 SLP208 T01830061